Time;durP1;ratioP1;P1;durP2;ratioP2;P2;SDS_P1;SDS_P2;PMS_P1;PMS_P2;Temp;Humidity;BMP_temperature;BMP_pressure;BME280_temperature;BME280_humidity;BME280_pressure;Samples;Min_cycle;Max_cycle;Signal;HPM_P1;HPM_P2
2022/02/10 00:03:32;;;;;;;6.00;4.03;;;;;;;5.40;71.00;97424.59;5093438;28;20410;-63
2022/02/10 00:22:47;;;;;;;5.75;3.65;;;;;;;5.41;69.82;97400.19;5111223;28;20422;-63
2022/02/10 00:38:21;;;;;;;4.57;3.80;;;;;;;5.50;69.27;97393.13;5111481;28;20391;-63
2022/02/10 00:40:46;;;;;;;6.55;4.00;;;;;;;5.36;69.95;97389.50;5115437;28;20412;-64
2022/02/10 00:43:13;;;;;;;4.23;3.47;;;;;;;5.37;69.75;97391.13;5109570;28;20386;-63
2022/02/10 00:45:39;;;;;;;6.07;3.50;;;;;;;5.13;70.01;97389.56;5095770;28;20742;-64
2022/02/10 00:48:08;;;;;;;4.88;3.63;;;;;;;5.19;69.75;97386.28;5108988;28;20399;-64
2022/02/10 00:50:36;;;;;;;6.33;3.70;;;;;;;5.26;69.13;97382.00;5098704;28;20792;-64
2022/02/10 00:55:32;;;;;;;4.63;3.63;;;;;;;5.40;68.63;97389.00;5095629;28;20390;-61
2022/02/10 00:57:58;;;;;;;6.65;3.83;;;;;;;5.28;69.03;97379.22;5107732;28;20778;-63
2022/02/10 01:11:25;;;;;;;4.47;3.30;;;;;;;4.84;70.73;97373.97;5092324;28;20467;-64
2022/02/10 01:13:57;;;;;;;5.15;3.40;;;;;;;4.68;70.70;97359.31;5081002;28;20471;-63
2022/02/10 01:29:35;;;;;;;4.85;3.50;;;;;;;4.98;69.80;97358.41;5114296;28;20407;-62
2022/02/10 01:30:24;;;;;;;3.78;3.33;;;;;;;5.10;68.47;97361.38;5022100;28;20440;-63
2022/02/10 01:32:54;;;;;;;4.53;3.10;;;;;;;4.99;68.65;97361.81;5077393;28;20909;-62
2022/02/10 01:35:22;;;;;;;7.60;3.57;;;;;;;5.01;68.79;97358.03;5111903;28;20394;-63
2022/02/10 01:37:48;;;;;;;5.32;3.15;;;;;;;4.89;69.92;97356.88;5108312;28;20451;-64
2022/02/10 02:04:12;;;;;;;3.80;3.40;;;;;;;4.49;70.88;97341.63;5093859;28;20466;-65
2022/02/10 02:06:45;;;;;;;4.30;3.03;;;;;;;4.38;71.09;97335.06;5104301;28;20400;-63
2022/02/10 02:09:14;;;;;;;4.13;3.30;;;;;;;4.55;70.56;97333.16;5096626;28;20397;-64
2022/02/10 02:11:40;;;;;;;4.68;3.53;;;;;;;4.50;70.00;97323.31;5078241;28;20454;-64
2022/02/10 02:14:07;;;;;;;3.97;3.38;;;;;;;4.67;69.82;97323.97;5114758;28;20403;-64
2022/02/10 02:16:33;;;;;;;4.95;3.15;;;;;;;4.76;69.09;97325.50;5094464;28;20397;-63
2022/02/10 02:18:59;;;;;;;3.97;3.08;;;;;;;4.88;68.43;97310.28;5094411;28;20450;-64
2022/02/10 02:21:25;;;;;;;4.32;3.30;;;;;;;4.78;68.75;97302.75;5096826;28;20404;-63
2022/02/10 02:23:50;;;;;;;5.72;3.70;;;;;;;4.76;69.22;97303.91;5108075;28;20402;-62
2022/02/10 02:26:22;;;;;;;5.38;4.03;;;;;;;4.71;69.80;97295.84;5093585;28;20390;-64
2022/02/10 02:28:52;;;;;;;7.03;4.20;;;;;;;4.62;70.12;97294.31;5075416;28;20455;-63
2022/02/10 02:31:21;;;;;;;4.82;3.95;;;;;;;4.41;71.35;97290.59;5094357;28;20489;-63
2022/02/10 03:06:30;;;;;;;4.07;3.35;;;;;;;4.24;70.08;97272.72;5093419;28;20409;-64
2022/02/10 03:09:00;;;;;;;4.43;3.30;;;;;;;4.23;69.77;97269.34;5093026;28;20409;-64
2022/02/10 03:11:25;;;;;;;5.38;3.05;;;;;;;4.50;68.77;97270.59;5079087;28;20451;-63
2022/02/10 03:13:59;;;;;;;4.23;3.13;;;;;;;4.45;68.82;97265.94;5092839;28;20887;-62
2022/02/10 03:22:11;;;;;;;6.03;3.53;;;;;;;4.47;68.40;97269.13;5079928;28;20413;-63
2022/02/10 04:11:29;;;;;;;4.60;2.92;;;;;;;4.43;68.38;97293.03;5093133;28;20415;-62
2022/02/10 04:16:44;;;;;;;3.65;3.13;;;;;;;4.40;69.25;97283.78;5111499;28;20395;-63
2022/02/10 04:53:50;;;;;;;4.40;3.20;;;;;;;4.05;70.80;97280.03;5077938;28;20434;-64
2022/02/10 05:01:48;;;;;;;3.63;3.10;;;;;;;4.23;70.59;97258.19;5094569;28;21212;-63
2022/02/10 05:07:21;;;;;;;4.28;3.25;;;;;;;4.05;70.67;97250.69;5081680;28;20404;-62
2022/02/10 05:18:01;;;;;;;4.20;3.20;;;;;;;3.89;71.47;97253.41;5095951;28;20479;-62
2022/02/10 05:33:54;;;;;;;3.85;2.70;;;;;;;4.00;71.67;97243.44;5101941;28;21616;-63
2022/02/10 05:36:23;;;;;;;4.85;2.95;;;;;;;4.12;70.80;97236.06;5107226;28;20425;-63
2022/02/10 05:39:08;;;;;;;4.03;2.80;;;;;;;4.12;70.41;97238.66;5112714;28;20388;-62
2022/02/10 05:47:22;;;;;;;3.50;2.83;;;;;;;4.12;70.73;97246.44;5093950;28;20401;-63
2022/02/10 05:55:23;;;;;;;4.88;3.10;;;;;;;4.11;71.31;97245.63;5096944;28;20469;-62
2022/02/10 05:57:51;;;;;;;3.88;3.20;;;;;;;4.01;71.40;97239.84;5093208;28;20406;-62
2022/02/10 06:52:20;;;;;;;3.03;2.58;;;;;;;4.88;72.61;97260.94;5043415;28;20408;-63
2022/02/10 07:06:13;;;;;;;4.53;2.53;;;;;;;5.21;71.66;97251.78;5049809;28;20477;-64
2022/02/10 07:47:20;;;;;;;4.07;2.92;;;;;;;7.79;86.19;97234.47;5071604;28;20399;-61
2022/02/10 09:08:18;;;;;;;4.90;2.60;;;;;;;8.44;61.02;97267.72;5125152;27;20403;-59
2022/02/10 09:13:40;;;;;;;3.58;2.40;;;;;;;8.49;61.32;97274.94;5102473;28;20412;-58
2022/02/10 09:22:04;;;;;;;6.05;3.00;;;;;;;8.82;61.08;97267.09;5114692;28;20411;-62
2022/02/10 09:55:10;;;;;;;3.88;2.50;;;;;;;10.17;58.72;97274.84;5114523;28;20412;-58
2022/02/10 10:00:26;;;;;;;4.75;2.47;;;;;;;10.60;58.00;97261.81;5100648;28;20960;-58
2022/02/10 10:03:12;;;;;;;4.15;2.53;;;;;;;10.60;57.24;97261.81;5113870;28;20424;-59
2022/02/10 10:05:52;;;;;;;4.10;2.60;;;;;;;10.62;57.16;97270.28;5105120;28;20459;-60
2022/02/10 10:08:40;;;;;;;3.60;2.50;;;;;;;10.80;56.95;97271.13;5093488;28;20414;-58
2022/02/10 10:14:20;;;;;;;3.80;2.30;;;;;;;11.08;55.95;97273.28;5093540;28;20508;-57
2022/02/10 10:22:56;;;;;;;5.20;2.75;;;;;;;10.86;55.86;97284.38;5093200;28;20390;-58
2022/02/10 10:50:46;;;;;;;5.20;2.92;;;;;;;11.27;55.50;97242.59;5110625;28;20737;-59
2022/02/10 10:56:13;;;;;;;5.07;2.80;;;;;;;11.49;54.91;97253.44;5096211;28;20742;-61
2022/02/10 10:59:10;;;;;;;3.97;2.78;;;;;;;11.50;54.95;97252.41;5092466;28;20878;-59
2022/02/10 11:40:57;;;;;;;5.35;2.90;;;;;;;11.82;55.41;97235.47;5080098;28;20420;-60
2022/02/10 13:23:26;;;;;;;6.53;4.60;;;;;;;10.24;64.88;97220.59;5115461;28;20517;-59
2022/02/10 14:10:29;;;;;;;6.32;4.93;;;;;;;9.28;70.02;97235.59;5119931;27;20456;-58
2022/02/10 14:28:23;;;;;;;8.40;5.47;;;;;;;8.36;74.75;97249.63;5030505;28;20438;-62
2022/02/10 14:30:52;;;;;;;8.98;5.80;;;;;;;8.12;75.23;97255.41;5030801;28;20395;-60
2022/02/10 14:33:24;;;;;;;9.20;5.55;;;;;;;8.06;75.15;97261.44;5030642;28;20394;-60
2022/02/10 15:11:22;;;;;;;8.98;5.40;;;;;;;8.19;75.62;97266.69;5089486;28;20408;-59
2022/02/10 15:22:02;;;;;;;8.00;5.30;;;;;;;8.30;74.91;97258.28;5070979;28;20774;-59
2022/02/10 16:17:54;;;;;;;4.65;3.00;;;;;;;8.14;67.57;97256.81;5091077;28;20397;-55
2022/02/10 16:20:22;;;;;;;4.00;2.80;;;;;;;8.04;67.60;97250.38;5107537;28;20388;-59
2022/02/10 16:23:00;;;;;;;6.05;2.95;;;;;;;8.20;67.09;97250.78;5103751;28;20417;-54
2022/02/10 16:25:32;;;;;;;3.05;2.45;;;;;;;8.22;65.98;97243.56;5095053;28;20468;-53
2022/02/10 16:28:40;;;;;;;3.80;2.60;;;;;;;8.31;65.37;97250.22;5109870;28;20543;-62
2022/02/10 16:30:47;;;;;;;3.97;2.70;;;;;;;8.20;65.45;97248.19;5085791;28;20386;-58
2022/02/10 16:33:12;;;;;;;4.17;2.70;;;;;;;8.16;65.56;97257.41;5093401;28;20401;-55
2022/02/10 16:35:39;;;;;;;2.90;2.42;;;;;;;8.08;66.03;97260.22;5091249;28;20489;-55
2022/02/10 16:38:05;;;;;;;4.38;3.58;;;;;;;8.22;67.32;97258.44;5092816;28;20397;-60
2022/02/10 16:40:30;;;;;;;6.40;4.40;;;;;;;8.00;73.50;97272.66;5091174;28;20435;-61
2022/02/10 16:42:56;;;;;;;7.03;4.60;;;;;;;7.64;72.59;97265.94;5092059;28;20481;-55
2022/02/10 16:45:23;;;;;;;8.45;5.07;;;;;;;7.35;72.79;97274.88;5104211;28;20392;-58
2022/02/10 16:47:48;;;;;;;6.03;4.47;;;;;;;7.51;72.65;97265.91;5093686;28;20793;-54
2022/02/10 16:50:14;;;;;;;6.78;4.47;;;;;;;7.41;72.79;97261.03;5102750;28;20398;-59
2022/02/10 16:52:46;;;;;;;5.20;3.60;;;;;;;7.51;70.52;97258.09;5113448;28;20406;-59
2022/02/10 16:55:51;;;;;;;3.63;2.75;;;;;;;7.72;67.59;97249.31;5106841;28;20389;-56
2022/02/10 17:03:55;;;;;;;3.45;2.70;;;;;;;7.60;66.54;97249.06;5083168;28;20496;-54
2022/02/10 17:25:20;;;;;;;4.10;2.78;;;;;;;7.82;64.11;97265.38;5080532;28;20465;-57
2022/02/10 17:27:53;;;;;;;4.70;2.90;;;;;;;7.80;64.39;97262.19;5086747;28;20705;-58
2022/02/10 17:54:07;;;;;;;3.77;2.80;;;;;;;7.63;65.71;97259.13;5093717;28;20886;-61
2022/02/10 17:56:33;;;;;;;5.28;2.65;;;;;;;7.37;66.48;97259.81;5084596;28;20461;-57
2022/02/10 17:59:00;;;;;;;4.35;2.63;;;;;;;7.44;66.26;97265.88;5093891;28;20511;-61
2022/02/10 18:01:27;;;;;;;2.83;2.42;;;;;;;7.47;66.36;97265.47;5079561;28;20486;-60
2022/02/10 18:03:52;;;;;;;3.85;2.95;;;;;;;7.55;65.82;97266.31;5086658;28;20398;-60
2022/02/10 18:06:27;;;;;;;3.47;2.63;;;;;;;7.56;65.78;97273.13;5093294;28;20506;-61
2022/02/10 18:09:25;;;;;;;4.40;3.10;;;;;;;7.57;66.41;97266.94;5092902;28;20488;-61
2022/02/10 18:19:25;;;;;;;3.97;2.60;;;;;;;7.71;66.10;97258.94;5093017;28;20385;-60
2022/02/10 19:12:04;;;;;;;5.83;2.53;;;;;;;7.13;69.33;97244.69;5071431;28;20851;-61
2022/02/10 19:14:33;;;;;;;3.45;2.70;;;;;;;7.31;68.49;97250.16;5052414;28;20405;-61
2022/02/10 19:16:58;;;;;;;4.20;2.92;;;;;;;7.32;69.03;97243.16;5070652;28;20399;-61
2022/02/10 19:19:24;;;;;;;3.83;2.78;;;;;;;7.19;69.13;97249.09;5089092;28;20400;-61
2022/02/10 19:21:49;;;;;;;3.42;2.60;;;;;;;7.12;69.72;97252.69;5090410;28;20841;-64
2022/02/10 19:24:17;;;;;;;3.27;2.60;;;;;;;7.08;69.67;97255.66;5084004;28;20506;-61
2022/02/10 19:26:50;;;;;;;3.00;2.53;;;;;;;7.14;69.48;97255.91;5077054;28;20400;-61
2022/02/10 19:29:16;;;;;;;3.80;2.80;;;;;;;7.27;69.22;97255.97;5067265;28;20755;-59
2022/02/10 19:31:41;;;;;;;3.65;2.55;;;;;;;7.24;69.57;97243.34;5075174;28;20386;-60
2022/02/10 19:34:07;;;;;;;3.07;2.47;;;;;;;7.18;69.57;97249.31;5080569;28;20403;-59
2022/02/10 19:36:34;;;;;;;4.10;2.70;;;;;;;7.21;69.67;97241.09;5073568;28;20391;-60
2022/02/10 19:38:59;;;;;;;2.53;2.30;;;;;;;7.01;70.28;97248.84;5091757;28;20727;-60
2022/02/10 19:41:32;;;;;;;2.93;2.40;;;;;;;6.96;70.59;97244.19;5077486;28;20459;-59
2022/02/10 19:44:01;;;;;;;3.10;2.60;;;;;;;6.91;70.59;97241.34;5084966;28;22066;-61
2022/02/10 19:46:27;;;;;;;3.28;2.55;;;;;;;6.83;71.28;97231.09;5083810;28;20392;-61
2022/02/10 19:48:54;;;;;;;2.72;2.53;;;;;;;6.93;70.96;97230.72;5070940;28;20594;-59
2022/02/10 19:51:20;;;;;;;3.28;2.70;;;;;;;7.00;70.55;97228.97;5070961;28;20884;-60
2022/02/10 19:53:47;;;;;;;3.57;2.37;;;;;;;7.08;70.38;97227.00;5068239;28;20404;-60
2022/02/10 19:56:14;;;;;;;5.17;2.67;;;;;;;6.98;70.78;97226.56;5067747;28;20486;-60
2022/02/10 19:58:39;;;;;;;3.53;2.60;;;;;;;6.90;71.33;97229.34;5071352;28;20419;-60
2022/02/10 20:01:05;;;;;;;3.90;2.70;;;;;;;6.83;71.41;97231.09;5069948;28;20481;-59
2022/02/10 20:03:33;;;;;;;5.57;3.10;;;;;;;6.96;71.04;97227.75;5089655;28;20444;-58
2022/02/10 20:06:00;;;;;;;2.97;2.65;;;;;;;6.92;70.95;97219.50;5072350;28;20925;-60
2022/02/10 20:08:26;;;;;;;3.90;2.70;;;;;;;7.02;70.89;97224.38;5080817;28;20406;-60
2022/02/10 20:10:55;;;;;;;2.60;2.35;;;;;;;6.98;71.25;97216.13;5075444;28;20827;-60
2022/02/10 20:13:26;;;;;;;4.93;2.70;;;;;;;6.83;71.77;97220.66;5088830;28;20409;-62
2022/02/10 20:15:52;;;;;;;3.38;2.85;;;;;;;7.04;71.47;97223.19;5091607;28;20445;-61
2022/02/10 20:18:19;;;;;;;3.22;2.70;;;;;;;6.74;72.17;97219.22;5073924;28;20391;-60
2022/02/10 20:20:46;;;;;;;3.50;2.78;;;;;;;6.68;72.47;97218.19;5052826;28;20439;-59
2022/02/10 20:23:12;;;;;;;3.55;2.78;;;;;;;6.90;71.97;97226.72;5070931;28;20452;-59
2022/02/10 20:25:38;;;;;;;3.90;2.70;;;;;;;6.78;72.35;97228.25;5043042;28;20411;-64
2022/02/10 20:28:09;;;;;;;3.90;2.97;;;;;;;7.06;72.12;97212.56;5090750;28;20376;-58
2022/02/10 20:30:36;;;;;;;3.80;2.67;;;;;;;6.68;73.15;97206.97;5092110;28;20866;-59
2022/02/10 20:33:02;;;;;;;3.13;2.60;;;;;;;6.76;73.12;97208.59;5091483;28;20394;-56
2022/02/10 20:35:28;;;;;;;3.97;3.10;;;;;;;6.62;73.51;97203.31;5089662;28;20390;-54
2022/02/10 20:37:59;;;;;;;3.10;2.80;;;;;;;6.84;73.06;97198.03;5095257;28;20905;-60
2022/02/10 20:40:25;;;;;;;3.13;2.83;;;;;;;6.75;73.22;97186.94;5095601;28;20389;-60
2022/02/10 20:42:50;;;;;;;2.70;2.50;;;;;;;6.96;72.60;97194.69;5084622;28;20919;-59
2022/02/10 20:45:16;;;;;;;3.03;2.70;;;;;;;6.71;73.62;97193.53;5095331;28;20394;-59
2022/02/10 20:47:41;;;;;;;3.47;3.10;;;;;;;6.80;73.42;97184.56;5082164;28;20858;-53
2022/02/10 20:50:07;;;;;;;5.07;3.07;;;;;;;7.13;72.09;97181.31;5055854;28;20404;-54
2022/02/10 20:52:34;;;;;;;4.00;3.10;;;;;;;6.82;73.33;97179.16;5076958;28;20430;-57
2022/02/10 20:54:59;;;;;;;3.55;2.60;;;;;;;6.97;72.68;97180.63;5081931;28;20864;-54
2022/02/10 20:57:25;;;;;;;4.27;3.00;;;;;;;6.74;73.20;97180.16;5086100;28;20427;-60
2022/02/10 20:59:53;;;;;;;3.25;2.95;;;;;;;6.82;73.61;97179.16;5095061;28;20397;-56
2022/02/10 21:02:27;;;;;;;4.38;3.20;;;;;;;6.69;74.00;97172.88;5069208;28;20494;-60
2022/02/10 21:04:59;;;;;;;4.07;3.17;;;;;;;6.76;74.24;97178.13;5074423;28;20432;-60
2022/02/10 21:07:40;;;;;;;3.53;3.20;;;;;;;6.71;74.33;97175.31;5048786;28;20770;-60
2022/02/10 21:10:12;;;;;;;4.30;2.97;;;;;;;6.66;74.10;97170.69;5081581;28;20482;-60
2022/02/10 21:12:40;;;;;;;5.03;3.10;;;;;;;6.86;73.81;97162.97;5113144;28;20813;-61
2022/02/10 21:15:11;;;;;;;4.28;3.13;;;;;;;6.82;73.64;97164.34;5114761;28;20503;-59
2022/02/10 21:17:37;;;;;;;3.30;3.00;;;;;;;6.79;74.18;97171.75;5116633;27;20417;-60
2022/02/10 21:20:06;;;;;;;5.77;3.50;;;;;;;6.73;74.61;97175.13;5114723;28;20472;-57
2022/02/10 21:22:36;;;;;;;4.38;3.35;;;;;;;7.00;73.69;97166.44;5113639;28;20404;-59
2022/02/10 21:25:21;;;;;;;6.00;4.22;;;;;;;6.95;73.84;97166.22;5114284;28;20375;-58
2022/02/10 21:27:49;;;;;;;5.45;4.03;;;;;;;6.85;73.99;97168.38;5119735;27;20392;-60
2022/02/10 21:30:16;;;;;;;6.78;4.32;;;;;;;6.85;74.32;97165.78;5114631;28;20388;-58
2022/02/10 21:32:55;;;;;;;5.68;4.68;;;;;;;6.87;74.69;97171.56;5114638;27;20396;-60
2022/02/10 21:35:43;;;;;;;9.63;5.40;;;;;;;6.94;74.07;97170.63;5114514;28;20475;-58
2022/02/10 22:08:26;;;;;;;4.90;2.97;;;;;;;7.19;71.97;97123.97;5113798;28;20400;-58
2022/02/10 22:09:53;;;;;;;4.00;3.17;;;;;;;7.09;72.42;97128.75;5109232;27;20417;-58
2022/02/10 22:20:17;;;;;;;5.70;3.17;;;;;;;7.06;72.53;97108.31;5107878;28;20423;-61
2022/02/10 22:23:17;;;;;;;3.17;2.80;;;;;;;7.41;71.14;97104.56;5113634;28;20408;-60
2022/02/10 22:25:35;;;;;;;4.53;2.92;;;;;;;7.04;72.24;97110.31;5110190;28;20404;-60
2022/02/10 22:28:10;;;;;;;4.63;3.10;;;;;;;6.93;72.89;97110.88;5113820;28;20372;-58
2022/02/10 22:30:49;;;;;;;4.05;3.30;;;;;;;7.08;72.32;97109.72;5095448;28;20455;-54
2022/02/10 22:35:43;;;;;;;3.88;3.30;;;;;;;7.31;71.81;97108.56;5093345;28;20378;-54
2022/02/10 22:38:08;;;;;;;5.40;3.43;;;;;;;7.13;72.36;97109.16;5093088;28;20477;-59
2022/02/10 22:40:56;;;;;;;5.63;3.50;;;;;;;7.30;71.87;97112.19;5091173;28;20802;-54
2022/02/10 22:43:22;;;;;;;4.27;3.47;;;;;;;7.23;72.25;97119.19;5113663;28;20461;-58
2022/02/10 22:45:47;;;;;;;5.60;4.00;;;;;;;7.31;71.98;97111.97;5113233;28;20726;-57
2022/02/10 22:48:13;;;;;;;4.15;3.63;;;;;;;7.18;72.36;97117.19;5113208;28;20400;-57
2022/02/10 22:50:38;;;;;;;5.38;3.22;;;;;;;7.27;72.57;97116.00;5095311;28;20489;-54
2022/02/10 22:53:04;;;;;;;4.60;3.40;;;;;;;7.18;72.91;97116.38;5093679;28;20415;-61
2022/02/10 22:55:31;;;;;;;4.70;3.43;;;;;;;7.08;73.33;97108.91;5106193;28;20407;-60
2022/02/10 22:57:57;;;;;;;5.18;3.70;;;;;;;7.06;73.69;97113.53;5113646;28;20732;-57
2022/02/10 23:00:33;;;;;;;4.47;3.47;;;;;;;7.07;73.25;97099.50;5112303;28;20410;-59
2022/02/10 23:02:59;;;;;;;5.10;3.80;;;;;;;7.01;73.71;97108.91;5113623;28;20403;-60
2022/02/10 23:05:25;;;;;;;4.57;3.28;;;;;;;7.05;73.95;97102.31;5113222;28;20376;-57
2022/02/10 23:07:57;;;;;;;3.97;3.20;;;;;;;7.20;73.18;97090.91;5104928;28;20418;-57
2022/02/10 23:10:46;;;;;;;4.10;3.20;;;;;;;7.26;72.97;97092.72;5090036;28;20913;-57
2022/02/10 23:13:28;;;;;;;4.18;3.45;;;;;;;7.18;73.56;97095.53;5092862;28;20957;-59
2022/02/10 23:15:59;;;;;;;5.65;3.50;;;;;;;7.27;73.22;97084.72;5092684;28;20443;-58
2022/02/10 23:18:27;;;;;;;4.97;3.53;;;;;;;7.33;73.33;97089.13;5103393;28;20427;-59
2022/02/10 23:20:55;;;;;;;4.85;3.42;;;;;;;7.44;73.23;97093.75;5094362;28;20419;-62
2022/02/10 23:23:22;;;;;;;5.83;3.47;;;;;;;7.45;73.01;97092.75;5093674;28;21045;-59
2022/02/10 23:25:51;;;;;;;4.90;3.30;;;;;;;7.36;73.09;97082.69;5092504;28;20412;-60
2022/02/10 23:28:25;;;;;;;4.37;3.37;;;;;;;7.28;73.61;97080.31;5102027;28;21002;-60
2022/02/10 23:30:52;;;;;;;3.72;3.42;;;;;;;7.60;72.58;97084.75;5112522;28;20379;-60
2022/02/10 23:33:24;;;;;;;5.70;3.33;;;;;;;7.58;72.59;97076.31;5112806;28;20376;-59
2022/02/10 23:38:28;;;;;;;4.77;3.73;;;;;;;7.55;72.59;97089.75;5102773;28;20472;-60
2022/02/10 23:43:27;;;;;;;5.20;3.53;;;;;;;7.36;73.39;97093.13;5092450;28;20381;-60
2022/02/10 23:45:52;;;;;;;4.72;3.30;;;;;;;7.32;73.30;97090.13;5092077;28;20393;-60
2022/02/10 23:48:18;;;;;;;5.90;3.40;;;;;;;7.25;73.91;97091.09;5101118;28;20397;-60
2022/02/10 23:50:43;;;;;;;6.13;3.60;;;;;;;7.37;73.20;97081.72;5112534;28;20422;-60
2022/02/10 23:53:09;;;;;;;6.20;4.00;;;;;;;7.51;72.99;97088.56;5112567;28;20487;-58
2022/02/10 23:55:38;;;;;;;5.70;3.45;;;;;;;7.45;73.19;97081.53;5112428;28;20376;-59
